sensor_id;sensor_type;location;lat;lon;timestamp;P1;durP1;ratioP1;P2;durP2;ratioP2
21979;SDS011;11154;48.558;9.234;2024-03-06T00:01:33;5.75;;;2.53;;
21979;SDS011;11154;48.558;9.234;2024-03-06T00:03:35;4.90;;;3.30;;
21979;SDS011;11154;48.558;9.234;2024-03-06T00:05:36;6.30;;;3.20;;
21979;SDS011;11154;48.558;9.234;2024-03-06T00:07:40;5.60;;;2.90;;
21979;SDS011;11154;48.558;9.234;2024-03-06T00:09:41;6.35;;;2.85;;
21979;SDS011;11154;48.558;9.234;2024-03-06T00:11:43;4.13;;;2.70;;
21979;SDS011;11154;48.558;9.234;2024-03-06T00:13:44;4.80;;;2.92;;
21979;SDS011;11154;48.558;9.234;2024-03-06T00:15:47;7.15;;;3.30;;
21979;SDS011;11154;48.558;9.234;2024-03-06T00:17:49;4.43;;;3.10;;
21979;SDS011;11154;48.558;9.234;2024-03-06T00:19:50;6.78;;;2.90;;
21979;SDS011;11154;48.558;9.234;2024-03-06T00:21:52;4.65;;;2.83;;
21979;SDS011;11154;48.558;9.234;2024-03-06T00:23:55;4.50;;;2.88;;
21979;SDS011;11154;48.558;9.234;2024-03-06T00:25:57;3.38;;;2.85;;
21979;SDS011;11154;48.558;9.234;2024-03-06T00:27:59;4.53;;;3.00;;
21979;SDS011;11154;48.558;9.234;2024-03-06T00:30:02;5.18;;;2.70;;
21979;SDS011;11154;48.558;9.234;2024-03-06T00:32:04;5.50;;;3.10;;
21979;SDS011;11154;48.558;9.234;2024-03-06T00:34:06;5.30;;;2.83;;
21979;SDS011;11154;48.558;9.234;2024-03-06T00:36:08;3.80;;;3.10;;
21979;SDS011;11154;48.558;9.234;2024-03-06T00:38:09;7.32;;;3.22;;
21979;SDS011;11154;48.558;9.234;2024-03-06T00:40:13;8.02;;;3.42;;
21979;SDS011;11154;48.558;9.234;2024-03-06T00:42:14;3.50;;;2.90;;
21979;SDS011;11154;48.558;9.234;2024-03-06T00:44:16;4.68;;;2.97;;
21979;SDS011;11154;48.558;9.234;2024-03-06T00:46:17;3.70;;;2.88;;
21979;SDS011;11154;48.558;9.234;2024-03-06T00:48:18;4.97;;;3.15;;
21979;SDS011;11154;48.558;9.234;2024-03-06T00:50:20;4.40;;;2.97;;
21979;SDS011;11154;48.558;9.234;2024-03-06T00:52:22;3.78;;;2.95;;
21979;SDS011;11154;48.558;9.234;2024-03-06T00:54:24;4.40;;;3.08;;
21979;SDS011;11154;48.558;9.234;2024-03-06T00:56:26;4.35;;;3.40;;
21979;SDS011;11154;48.558;9.234;2024-03-06T00:58:28;4.35;;;3.17;;
21979;SDS011;11154;48.558;9.234;2024-03-06T01:00:29;4.30;;;3.35;;
21979;SDS011;11154;48.558;9.234;2024-03-06T01:02:31;3.97;;;3.10;;
21979;SDS011;11154;48.558;9.234;2024-03-06T01:04:33;7.75;;;5.35;;
21979;SDS011;11154;48.558;9.234;2024-03-06T01:06:35;5.70;;;4.30;;
21979;SDS011;11154;48.558;9.234;2024-03-06T01:08:36;7.65;;;3.17;;
21979;SDS011;11154;48.558;9.234;2024-03-06T01:10:38;6.22;;;3.10;;
21979;SDS011;11154;48.558;9.234;2024-03-06T01:12:40;4.88;;;2.85;;
21979;SDS011;11154;48.558;9.234;2024-03-06T01:14:44;4.80;;;3.38;;
21979;SDS011;11154;48.558;9.234;2024-03-06T01:16:45;4.72;;;3.10;;
21979;SDS011;11154;48.558;9.234;2024-03-06T01:18:47;4.03;;;2.78;;
21979;SDS011;11154;48.558;9.234;2024-03-06T01:20:48;4.15;;;3.10;;
21979;SDS011;11154;48.558;9.234;2024-03-06T01:22:49;3.60;;;2.88;;
21979;SDS011;11154;48.558;9.234;2024-03-06T01:24:51;4.30;;;3.17;;
21979;SDS011;11154;48.558;9.234;2024-03-06T01:26:53;3.50;;;2.97;;
21979;SDS011;11154;48.558;9.234;2024-03-06T01:28:56;5.07;;;2.85;;
21979;SDS011;11154;48.558;9.234;2024-03-06T01:30:57;4.15;;;2.83;;
21979;SDS011;11154;48.558;9.234;2024-03-06T01:32:59;5.90;;;2.90;;
21979;SDS011;11154;48.558;9.234;2024-03-06T01:35:01;4.25;;;2.85;;
21979;SDS011;11154;48.558;9.234;2024-03-06T01:37:02;5.28;;;2.88;;
21979;SDS011;11154;48.558;9.234;2024-03-06T01:39:03;4.53;;;3.47;;
21979;SDS011;11154;48.558;9.234;2024-03-06T01:41:05;4.88;;;3.10;;
21979;SDS011;11154;48.558;9.234;2024-03-06T01:43:16;8.90;;;3.15;;
21979;SDS011;11154;48.558;9.234;2024-03-06T01:45:21;3.85;;;3.20;;
21979;SDS011;11154;48.558;9.234;2024-03-06T01:47:23;4.35;;;3.13;;
21979;SDS011;11154;48.558;9.234;2024-03-06T01:49:24;4.03;;;2.85;;
21979;SDS011;11154;48.558;9.234;2024-03-06T01:51:28;4.15;;;3.35;;
21979;SDS011;11154;48.558;9.234;2024-03-06T01:53:29;5.75;;;2.78;;
21979;SDS011;11154;48.558;9.234;2024-03-06T01:55:32;10.50;;;6.57;;
21979;SDS011;11154;48.558;9.234;2024-03-06T01:57:33;7.50;;;4.90;;
21979;SDS011;11154;48.558;9.234;2024-03-06T01:59:37;4.55;;;3.30;;
21979;SDS011;11154;48.558;9.234;2024-03-06T02:01:40;4.35;;;3.40;;
21979;SDS011;11154;48.558;9.234;2024-03-06T02:03:42;4.07;;;3.30;;
21979;SDS011;11154;48.558;9.234;2024-03-06T02:05:44;5.85;;;3.50;;
21979;SDS011;11154;48.558;9.234;2024-03-06T02:07:45;4.25;;;3.40;;
21979;SDS011;11154;48.558;9.234;2024-03-06T02:09:47;4.10;;;3.70;;
21979;SDS011;11154;48.558;9.234;2024-03-06T02:11:49;4.07;;;3.40;;
21979;SDS011;11154;48.558;9.234;2024-03-06T02:13:51;4.75;;;3.63;;
21979;SDS011;11154;48.558;9.234;2024-03-06T02:15:53;4.05;;;3.45;;
21979;SDS011;11154;48.558;9.234;2024-03-06T02:17:56;3.85;;;3.45;;
21979;SDS011;11154;48.558;9.234;2024-03-06T02:19:59;3.75;;;3.35;;
21979;SDS011;11154;48.558;9.234;2024-03-06T02:22:01;5.00;;;3.33;;
21979;SDS011;11154;48.558;9.234;2024-03-06T02:24:02;4.10;;;3.20;;
21979;SDS011;11154;48.558;9.234;2024-03-06T02:26:03;4.53;;;3.25;;
21979;SDS011;11154;48.558;9.234;2024-03-06T02:28:07;3.38;;;3.03;;
21979;SDS011;11154;48.558;9.234;2024-03-06T02:30:09;3.65;;;3.13;;
21979;SDS011;11154;48.558;9.234;2024-03-06T02:32:12;3.05;;;2.70;;
21979;SDS011;11154;48.558;9.234;2024-03-06T02:34:13;3.50;;;3.05;;
21979;SDS011;11154;48.558;9.234;2024-03-06T02:36:15;4.47;;;2.75;;
21979;SDS011;11154;48.558;9.234;2024-03-06T02:38:19;3.03;;;2.72;;
21979;SDS011;11154;48.558;9.234;2024-03-06T02:40:21;4.03;;;2.83;;
21979;SDS011;11154;48.558;9.234;2024-03-06T02:42:22;4.95;;;3.28;;
21979;SDS011;11154;48.558;9.234;2024-03-06T02:44:23;3.58;;;3.08;;
21979;SDS011;11154;48.558;9.234;2024-03-06T02:46:24;3.50;;;3.20;;
21979;SDS011;11154;48.558;9.234;2024-03-06T02:48:26;4.05;;;3.13;;
21979;SDS011;11154;48.558;9.234;2024-03-06T02:50:28;3.70;;;3.10;;
21979;SDS011;11154;48.558;9.234;2024-03-06T02:52:29;3.70;;;3.10;;
21979;SDS011;11154;48.558;9.234;2024-03-06T02:54:32;3.28;;;2.97;;
21979;SDS011;11154;48.558;9.234;2024-03-06T02:56:34;3.67;;;2.95;;
21979;SDS011;11154;48.558;9.234;2024-03-06T02:58:36;3.42;;;2.75;;
21979;SDS011;11154;48.558;9.234;2024-03-06T03:00:36;3.83;;;3.00;;
21979;SDS011;11154;48.558;9.234;2024-03-06T03:02:41;3.75;;;2.72;;
21979;SDS011;11154;48.558;9.234;2024-03-06T03:04:43;3.67;;;3.33;;
21979;SDS011;11154;48.558;9.234;2024-03-06T03:06:44;4.28;;;3.25;;
21979;SDS011;11154;48.558;9.234;2024-03-06T03:08:45;3.95;;;3.50;;
21979;SDS011;11154;48.558;9.234;2024-03-06T03:10:48;4.07;;;3.15;;
21979;SDS011;11154;48.558;9.234;2024-03-06T03:12:51;3.40;;;3.10;;
21979;SDS011;11154;48.558;9.234;2024-03-06T03:14:53;4.28;;;3.35;;
21979;SDS011;11154;48.558;9.234;2024-03-06T03:16:55;4.28;;;3.30;;
21979;SDS011;11154;48.558;9.234;2024-03-06T03:18:55;4.28;;;3.55;;
21979;SDS011;11154;48.558;9.234;2024-03-06T03:20:57;4.72;;;3.50;;
21979;SDS011;11154;48.558;9.234;2024-03-06T03:22:59;4.88;;;3.67;;
21979;SDS011;11154;48.558;9.234;2024-03-06T03:25:01;4.22;;;3.17;;
21979;SDS011;11154;48.558;9.234;2024-03-06T03:27:05;4.40;;;3.30;;
21979;SDS011;11154;48.558;9.234;2024-03-06T03:29:06;4.75;;;3.60;;
21979;SDS011;11154;48.558;9.234;2024-03-06T03:31:07;3.97;;;3.47;;
21979;SDS011;11154;48.558;9.234;2024-03-06T03:33:09;3.67;;;3.30;;
21979;SDS011;11154;48.558;9.234;2024-03-06T03:35:11;4.53;;;3.80;;
21979;SDS011;11154;48.558;9.234;2024-03-06T03:37:13;4.88;;;3.50;;
21979;SDS011;11154;48.558;9.234;2024-03-06T03:39:15;4.93;;;3.33;;
21979;SDS011;11154;48.558;9.234;2024-03-06T03:41:16;4.90;;;3.40;;
21979;SDS011;11154;48.558;9.234;2024-03-06T03:43:19;5.25;;;3.60;;
21979;SDS011;11154;48.558;9.234;2024-03-06T03:45:21;4.40;;;3.67;;
21979;SDS011;11154;48.558;9.234;2024-03-06T03:47:22;4.55;;;3.55;;
21979;SDS011;11154;48.558;9.234;2024-03-06T03:49:24;4.90;;;3.85;;
21979;SDS011;11154;48.558;9.234;2024-03-06T03:51:25;5.57;;;4.00;;
21979;SDS011;11154;48.558;9.234;2024-03-06T03:53:26;4.72;;;3.90;;
21979;SDS011;11154;48.558;9.234;2024-03-06T03:55:28;4.88;;;3.75;;
21979;SDS011;11154;48.558;9.234;2024-03-06T03:57:30;4.45;;;3.65;;
21979;SDS011;11154;48.558;9.234;2024-03-06T03:59:32;4.68;;;3.30;;
21979;SDS011;11154;48.558;9.234;2024-03-06T04:01:34;4.82;;;3.70;;
21979;SDS011;11154;48.558;9.234;2024-03-06T04:03:34;5.22;;;3.60;;
21979;SDS011;11154;48.558;9.234;2024-03-06T04:05:36;4.88;;;2.90;;
21979;SDS011;11154;48.558;9.234;2024-03-06T04:07:38;3.67;;;3.03;;
21979;SDS011;11154;48.558;9.234;2024-03-06T04:09:38;3.83;;;2.70;;
21979;SDS011;11154;48.558;9.234;2024-03-06T04:11:40;4.47;;;3.20;;
21979;SDS011;11154;48.558;9.234;2024-03-06T04:13:42;4.13;;;2.88;;
21979;SDS011;11154;48.558;9.234;2024-03-06T04:15:45;3.85;;;2.78;;
21979;SDS011;11154;48.558;9.234;2024-03-06T04:17:46;2.95;;;2.63;;
21979;SDS011;11154;48.558;9.234;2024-03-06T04:19:48;4.05;;;2.55;;
21979;SDS011;11154;48.558;9.234;2024-03-06T04:21:49;4.72;;;2.60;;
21979;SDS011;11154;48.558;9.234;2024-03-06T04:23:51;3.45;;;2.60;;
21979;SDS011;11154;48.558;9.234;2024-03-06T04:25:53;3.30;;;2.55;;
21979;SDS011;11154;48.558;9.234;2024-03-06T04:27:55;4.50;;;2.67;;
21979;SDS011;11154;48.558;9.234;2024-03-06T04:29:56;3.22;;;2.60;;
21979;SDS011;11154;48.558;9.234;2024-03-06T04:31:59;5.70;;;2.58;;
21979;SDS011;11154;48.558;9.234;2024-03-06T04:34:02;2.97;;;2.40;;
21979;SDS011;11154;48.558;9.234;2024-03-06T04:36:04;3.15;;;2.70;;
21979;SDS011;11154;48.558;9.234;2024-03-06T04:38:07;4.63;;;2.78;;
21979;SDS011;11154;48.558;9.234;2024-03-06T04:40:09;2.78;;;2.17;;
21979;SDS011;11154;48.558;9.234;2024-03-06T04:42:11;3.22;;;2.30;;
21979;SDS011;11154;48.558;9.234;2024-03-06T04:44:12;4.15;;;2.40;;
21979;SDS011;11154;48.558;9.234;2024-03-06T04:46:14;3.55;;;2.35;;
21979;SDS011;11154;48.558;9.234;2024-03-06T04:48:17;4.10;;;2.55;;
21979;SDS011;11154;48.558;9.234;2024-03-06T04:50:19;5.40;;;2.58;;
21979;SDS011;11154;48.558;9.234;2024-03-06T04:52:21;4.10;;;2.40;;
21979;SDS011;11154;48.558;9.234;2024-03-06T04:54:22;5.78;;;2.38;;
21979;SDS011;11154;48.558;9.234;2024-03-06T04:56:24;3.88;;;2.22;;
21979;SDS011;11154;48.558;9.234;2024-03-06T04:58:26;3.50;;;2.50;;
21979;SDS011;11154;48.558;9.234;2024-03-06T05:00:27;2.30;;;2.08;;
21979;SDS011;11154;48.558;9.234;2024-03-06T05:02:29;6.47;;;2.83;;
21979;SDS011;11154;48.558;9.234;2024-03-06T05:04:31;3.50;;;2.60;;
21979;SDS011;11154;48.558;9.234;2024-03-06T05:06:33;3.60;;;2.63;;
21979;SDS011;11154;48.558;9.234;2024-03-06T05:08:34;5.30;;;2.22;;
21979;SDS011;11154;48.558;9.234;2024-03-06T05:10:35;3.78;;;2.20;;
21979;SDS011;11154;48.558;9.234;2024-03-06T05:12:37;3.55;;;2.58;;
21979;SDS011;11154;48.558;9.234;2024-03-06T05:14:37;4.07;;;2.22;;
21979;SDS011;11154;48.558;9.234;2024-03-06T05:16:39;5.35;;;2.80;;
21979;SDS011;11154;48.558;9.234;2024-03-06T05:18:40;4.05;;;2.00;;
21979;SDS011;11154;48.558;9.234;2024-03-06T05:20:44;3.08;;;2.50;;
21979;SDS011;11154;48.558;9.234;2024-03-06T05:22:46;5.55;;;2.47;;
21979;SDS011;11154;48.558;9.234;2024-03-06T05:24:48;4.68;;;2.47;;
21979;SDS011;11154;48.558;9.234;2024-03-06T05:26:48;3.70;;;2.83;;
21979;SDS011;11154;48.558;9.234;2024-03-06T05:28:51;3.28;;;2.67;;
21979;SDS011;11154;48.558;9.234;2024-03-06T05:30:52;5.22;;;3.00;;
21979;SDS011;11154;48.558;9.234;2024-03-06T05:32:54;4.07;;;2.70;;
21979;SDS011;11154;48.558;9.234;2024-03-06T05:34:55;5.15;;;3.60;;
21979;SDS011;11154;48.558;9.234;2024-03-06T05:37:00;7.18;;;4.20;;
21979;SDS011;11154;48.558;9.234;2024-03-06T05:39:01;9.95;;;4.13;;
21979;SDS011;11154;48.558;9.234;2024-03-06T05:41:05;7.90;;;4.55;;
21979;SDS011;11154;48.558;9.234;2024-03-06T05:43:05;7.32;;;4.38;;
21979;SDS011;11154;48.558;9.234;2024-03-06T05:45:07;5.40;;;3.30;;
21979;SDS011;11154;48.558;9.234;2024-03-06T05:47:12;4.93;;;2.85;;
21979;SDS011;11154;48.558;9.234;2024-03-06T05:49:13;4.43;;;2.85;;
21979;SDS011;11154;48.558;9.234;2024-03-06T05:51:14;5.43;;;2.85;;
21979;SDS011;11154;48.558;9.234;2024-03-06T05:53:17;3.80;;;2.58;;
21979;SDS011;11154;48.558;9.234;2024-03-06T05:55:18;6.28;;;2.97;;
21979;SDS011;11154;48.558;9.234;2024-03-06T05:57:20;4.63;;;2.90;;
21979;SDS011;11154;48.558;9.234;2024-03-06T05:59:22;6.30;;;3.03;;
21979;SDS011;11154;48.558;9.234;2024-03-06T06:01:24;3.05;;;2.60;;
21979;SDS011;11154;48.558;9.234;2024-03-06T06:03:26;4.70;;;2.90;;
21979;SDS011;11154;48.558;9.234;2024-03-06T06:05:29;3.70;;;2.80;;
21979;SDS011;11154;48.558;9.234;2024-03-06T06:07:30;4.53;;;2.78;;
21979;SDS011;11154;48.558;9.234;2024-03-06T06:09:33;4.53;;;3.03;;
21979;SDS011;11154;48.558;9.234;2024-03-06T06:11:35;4.38;;;2.75;;
21979;SDS011;11154;48.558;9.234;2024-03-06T06:13:36;5.80;;;3.10;;
21979;SDS011;11154;48.558;9.234;2024-03-06T06:15:37;4.15;;;2.70;;
21979;SDS011;11154;48.558;9.234;2024-03-06T06:17:39;4.30;;;2.78;;
21979;SDS011;11154;48.558;9.234;2024-03-06T06:19:43;4.93;;;2.78;;
21979;SDS011;11154;48.558;9.234;2024-03-06T06:21:45;4.05;;;2.80;;
21979;SDS011;11154;48.558;9.234;2024-03-06T06:23:47;3.50;;;2.60;;
21979;SDS011;11154;48.558;9.234;2024-03-06T06:25:51;6.65;;;2.75;;
21979;SDS011;11154;48.558;9.234;2024-03-06T06:27:52;5.47;;;2.63;;
21979;SDS011;11154;48.558;9.234;2024-03-06T06:29:54;4.13;;;2.33;;
21979;SDS011;11154;48.558;9.234;2024-03-06T06:31:58;4.22;;;2.88;;
21979;SDS011;11154;48.558;9.234;2024-03-06T06:34:00;5.25;;;3.10;;
21979;SDS011;11154;48.558;9.234;2024-03-06T06:36:02;3.97;;;2.67;;
21979;SDS011;11154;48.558;9.234;2024-03-06T06:38:03;4.03;;;3.05;;
21979;SDS011;11154;48.558;9.234;2024-03-06T06:40:06;5.38;;;3.03;;
21979;SDS011;11154;48.558;9.234;2024-03-06T06:42:10;4.63;;;2.80;;
21979;SDS011;11154;48.558;9.234;2024-03-06T06:44:11;4.47;;;2.67;;
21979;SDS011;11154;48.558;9.234;2024-03-06T06:46:13;4.78;;;3.03;;
21979;SDS011;11154;48.558;9.234;2024-03-06T06:48:14;3.97;;;2.50;;
21979;SDS011;11154;48.558;9.234;2024-03-06T06:50:15;8.60;;;2.80;;
21979;SDS011;11154;48.558;9.234;2024-03-06T06:52:17;5.97;;;2.95;;
21979;SDS011;11154;48.558;9.234;2024-03-06T06:54:19;4.68;;;3.10;;
21979;SDS011;11154;48.558;9.234;2024-03-06T06:56:21;3.90;;;2.70;;
21979;SDS011;11154;48.558;9.234;2024-03-06T06:58:25;4.50;;;2.90;;
21979;SDS011;11154;48.558;9.234;2024-03-06T07:00:27;4.13;;;2.55;;
21979;SDS011;11154;48.558;9.234;2024-03-06T07:02:30;6.18;;;2.90;;
21979;SDS011;11154;48.558;9.234;2024-03-06T07:04:32;4.53;;;2.97;;
21979;SDS011;11154;48.558;9.234;2024-03-06T07:06:34;5.03;;;2.90;;
21979;SDS011;11154;48.558;9.234;2024-03-06T07:08:36;5.72;;;2.90;;
21979;SDS011;11154;48.558;9.234;2024-03-06T07:10:37;6.22;;;2.80;;
21979;SDS011;11154;48.558;9.234;2024-03-06T07:12:39;4.03;;;2.63;;
21979;SDS011;11154;48.558;9.234;2024-03-06T07:14:42;4.10;;;2.70;;
21979;SDS011;11154;48.558;9.234;2024-03-06T07:16:43;4.72;;;2.83;;
21979;SDS011;11154;48.558;9.234;2024-03-06T07:18:44;3.75;;;2.60;;
21979;SDS011;11154;48.558;9.234;2024-03-06T07:20:46;6.93;;;3.58;;
21979;SDS011;11154;48.558;9.234;2024-03-06T07:22:48;6.47;;;3.22;;
21979;SDS011;11154;48.558;9.234;2024-03-06T07:24:50;6.43;;;2.80;;
21979;SDS011;11154;48.558;9.234;2024-03-06T07:26:52;4.07;;;3.10;;
21979;SDS011;11154;48.558;9.234;2024-03-06T07:28:54;5.97;;;3.45;;
21979;SDS011;11154;48.558;9.234;2024-03-06T07:30:57;9.02;;;4.72;;
21979;SDS011;11154;48.558;9.234;2024-03-06T07:32:58;6.85;;;3.90;;
21979;SDS011;11154;48.558;9.234;2024-03-06T07:35:00;6.43;;;3.42;;
21979;SDS011;11154;48.558;9.234;2024-03-06T07:37:02;3.88;;;2.90;;
21979;SDS011;11154;48.558;9.234;2024-03-06T07:39:04;6.30;;;2.92;;
21979;SDS011;11154;48.558;9.234;2024-03-06T07:41:05;4.80;;;2.70;;
21979;SDS011;11154;48.558;9.234;2024-03-06T07:43:07;4.18;;;2.70;;
21979;SDS011;11154;48.558;9.234;2024-03-06T07:45:09;4.97;;;2.97;;
21979;SDS011;11154;48.558;9.234;2024-03-06T07:47:12;6.68;;;3.30;;
21979;SDS011;11154;48.558;9.234;2024-03-06T07:49:14;3.95;;;3.08;;
21979;SDS011;11154;48.558;9.234;2024-03-06T07:51:16;4.50;;;3.13;;
21979;SDS011;11154;48.558;9.234;2024-03-06T07:53:17;6.95;;;3.85;;
21979;SDS011;11154;48.558;9.234;2024-03-06T07:55:19;8.20;;;4.68;;
21979;SDS011;11154;48.558;9.234;2024-03-06T07:57:21;6.38;;;3.20;;
21979;SDS011;11154;48.558;9.234;2024-03-06T07:59:23;4.47;;;2.85;;
21979;SDS011;11154;48.558;9.234;2024-03-06T08:01:25;6.57;;;3.13;;
21979;SDS011;11154;48.558;9.234;2024-03-06T08:03:30;4.18;;;3.15;;
21979;SDS011;11154;48.558;9.234;2024-03-06T08:05:34;7.07;;;3.05;;
21979;SDS011;11154;48.558;9.234;2024-03-06T08:07:35;6.72;;;3.50;;
21979;SDS011;11154;48.558;9.234;2024-03-06T08:09:37;7.13;;;3.33;;
21979;SDS011;11154;48.558;9.234;2024-03-06T08:11:38;5.18;;;3.47;;
21979;SDS011;11154;48.558;9.234;2024-03-06T08:13:40;4.35;;;3.25;;
21979;SDS011;11154;48.558;9.234;2024-03-06T08:15:41;3.13;;;2.63;;
21979;SDS011;11154;48.558;9.234;2024-03-06T08:17:44;4.72;;;3.15;;
21979;SDS011;11154;48.558;9.234;2024-03-06T08:19:47;4.03;;;2.60;;
21979;SDS011;11154;48.558;9.234;2024-03-06T08:21:48;3.90;;;2.50;;
21979;SDS011;11154;48.558;9.234;2024-03-06T08:23:50;5.80;;;2.70;;
21979;SDS011;11154;48.558;9.234;2024-03-06T08:25:51;4.80;;;2.90;;
21979;SDS011;11154;48.558;9.234;2024-03-06T08:27:53;4.72;;;2.85;;
21979;SDS011;11154;48.558;9.234;2024-03-06T08:29:55;4.13;;;2.67;;
21979;SDS011;11154;48.558;9.234;2024-03-06T08:31:55;5.43;;;2.88;;
21979;SDS011;11154;48.558;9.234;2024-03-06T08:33:59;5.15;;;2.90;;
21979;SDS011;11154;48.558;9.234;2024-03-06T08:36:02;3.60;;;2.97;;
21979;SDS011;11154;48.558;9.234;2024-03-06T08:38:03;9.90;;;3.20;;
21979;SDS011;11154;48.558;9.234;2024-03-06T08:40:06;4.78;;;3.15;;
21979;SDS011;11154;48.558;9.234;2024-03-06T08:42:10;5.88;;;3.03;;
21979;SDS011;11154;48.558;9.234;2024-03-06T08:44:12;5.20;;;3.08;;
21979;SDS011;11154;48.558;9.234;2024-03-06T08:46:14;4.63;;;3.13;;
21979;SDS011;11154;48.558;9.234;2024-03-06T08:48:16;5.43;;;3.50;;
21979;SDS011;11154;48.558;9.234;2024-03-06T08:50:18;6.93;;;3.35;;
21979;SDS011;11154;48.558;9.234;2024-03-06T08:52:21;7.57;;;3.47;;
21979;SDS011;11154;48.558;9.234;2024-03-06T08:54:22;5.30;;;3.58;;
21979;SDS011;11154;48.558;9.234;2024-03-06T08:56:24;8.30;;;3.28;;
21979;SDS011;11154;48.558;9.234;2024-03-06T08:58:26;5.03;;;3.35;;
21979;SDS011;11154;48.558;9.234;2024-03-06T09:00:27;4.90;;;3.45;;
21979;SDS011;11154;48.558;9.234;2024-03-06T09:02:29;6.28;;;3.67;;
21979;SDS011;11154;48.558;9.234;2024-03-06T09:04:31;5.22;;;3.67;;
21979;SDS011;11154;48.558;9.234;2024-03-06T09:06:33;5.47;;;3.72;;
21979;SDS011;11154;48.558;9.234;2024-03-06T09:08:36;6.57;;;4.28;;
21979;SDS011;11154;48.558;9.234;2024-03-06T09:10:38;6.05;;;3.70;;
21979;SDS011;11154;48.558;9.234;2024-03-06T09:12:38;7.18;;;3.38;;
21979;SDS011;11154;48.558;9.234;2024-03-06T09:14:40;6.70;;;3.95;;
21979;SDS011;11154;48.558;9.234;2024-03-06T09:16:42;5.38;;;3.75;;
21979;SDS011;11154;48.558;9.234;2024-03-06T09:18:43;6.82;;;3.55;;
21979;SDS011;11154;48.558;9.234;2024-03-06T09:20:45;5.55;;;3.60;;
21979;SDS011;11154;48.558;9.234;2024-03-06T09:22:47;6.53;;;3.67;;
21979;SDS011;11154;48.558;9.234;2024-03-06T09:24:50;8.07;;;4.13;;
21979;SDS011;11154;48.558;9.234;2024-03-06T09:26:51;6.45;;;3.67;;
21979;SDS011;11154;48.558;9.234;2024-03-06T09:28:53;6.78;;;3.70;;
21979;SDS011;11154;48.558;9.234;2024-03-06T09:30:55;4.88;;;3.72;;
21979;SDS011;11154;48.558;9.234;2024-03-06T09:32:57;6.93;;;3.75;;
21979;SDS011;11154;48.558;9.234;2024-03-06T09:34:58;6.80;;;3.78;;
21979;SDS011;11154;48.558;9.234;2024-03-06T09:37:00;6.07;;;3.90;;
21979;SDS011;11154;48.558;9.234;2024-03-06T09:39:03;6.22;;;4.18;;
21979;SDS011;11154;48.558;9.234;2024-03-06T09:41:07;7.07;;;4.25;;
21979;SDS011;11154;48.558;9.234;2024-03-06T09:43:10;5.57;;;4.00;;
21979;SDS011;11154;48.558;9.234;2024-03-06T09:45:11;5.90;;;4.35;;
21979;SDS011;11154;48.558;9.234;2024-03-06T09:47:13;5.82;;;4.15;;
21979;SDS011;11154;48.558;9.234;2024-03-06T09:49:16;5.70;;;3.72;;
21979;SDS011;11154;48.558;9.234;2024-03-06T09:51:18;7.80;;;4.25;;
21979;SDS011;11154;48.558;9.234;2024-03-06T09:53:21;5.22;;;4.07;;
21979;SDS011;11154;48.558;9.234;2024-03-06T09:55:23;6.05;;;4.22;;
21979;SDS011;11154;48.558;9.234;2024-03-06T09:57:28;6.78;;;4.28;;
21979;SDS011;11154;48.558;9.234;2024-03-06T09:59:30;5.03;;;4.05;;
21979;SDS011;11154;48.558;9.234;2024-03-06T10:01:32;7.95;;;3.90;;
21979;SDS011;11154;48.558;9.234;2024-03-06T10:03:33;7.55;;;3.67;;
21979;SDS011;11154;48.558;9.234;2024-03-06T10:05:34;5.72;;;3.40;;
21979;SDS011;11154;48.558;9.234;2024-03-06T10:07:36;6.07;;;4.25;;
21979;SDS011;11154;48.558;9.234;2024-03-06T10:09:39;7.28;;;4.10;;
21979;SDS011;11154;48.558;9.234;2024-03-06T10:11:40;4.57;;;3.80;;
21979;SDS011;11154;48.558;9.234;2024-03-06T10:13:43;5.82;;;3.95;;
21979;SDS011;11154;48.558;9.234;2024-03-06T10:15:54;8.10;;;4.30;;
21979;SDS011;11154;48.558;9.234;2024-03-06T10:18:10;5.22;;;4.20;;
21979;SDS011;11154;48.558;9.234;2024-03-06T10:20:18;6.97;;;4.85;;
21979;SDS011;11154;48.558;9.234;2024-03-06T10:22:21;7.35;;;4.85;;
21979;SDS011;11154;48.558;9.234;2024-03-06T10:24:24;7.63;;;4.60;;
21979;SDS011;11154;48.558;9.234;2024-03-06T10:26:29;5.10;;;4.18;;
21979;SDS011;11154;48.558;9.234;2024-03-06T10:28:30;5.85;;;4.10;;
21979;SDS011;11154;48.558;9.234;2024-03-06T10:30:35;10.20;;;5.68;;
21979;SDS011;11154;48.558;9.234;2024-03-06T10:32:37;7.32;;;4.70;;
21979;SDS011;11154;48.558;9.234;2024-03-06T10:34:38;6.07;;;4.35;;
21979;SDS011;11154;48.558;9.234;2024-03-06T10:36:41;6.95;;;3.97;;
21979;SDS011;11154;48.558;9.234;2024-03-06T10:38:44;6.93;;;5.18;;
21979;SDS011;11154;48.558;9.234;2024-03-06T10:40:46;13.05;;;11.73;;
21979;SDS011;11154;48.558;9.234;2024-03-06T10:42:47;8.18;;;4.45;;
21979;SDS011;11154;48.558;9.234;2024-03-06T10:44:51;5.20;;;3.90;;
21979;SDS011;11154;48.558;9.234;2024-03-06T10:46:58;7.72;;;4.13;;
21979;SDS011;11154;48.558;9.234;2024-03-06T10:49:01;6.75;;;4.90;;
21979;SDS011;11154;48.558;9.234;2024-03-06T10:51:03;6.80;;;4.72;;
21979;SDS011;11154;48.558;9.234;2024-03-06T10:53:08;6.18;;;4.32;;
21979;SDS011;11154;48.558;9.234;2024-03-06T10:55:11;6.93;;;4.65;;
21979;SDS011;11154;48.558;9.234;2024-03-06T10:57:16;6.63;;;4.43;;
21979;SDS011;11154;48.558;9.234;2024-03-06T10:59:20;10.13;;;4.32;;
21979;SDS011;11154;48.558;9.234;2024-03-06T11:01:26;7.03;;;4.32;;
21979;SDS011;11154;48.558;9.234;2024-03-06T11:03:33;10.63;;;7.53;;
21979;SDS011;11154;48.558;9.234;2024-03-06T11:05:36;5.82;;;4.22;;
21979;SDS011;11154;48.558;9.234;2024-03-06T11:07:40;8.27;;;5.07;;
21979;SDS011;11154;48.558;9.234;2024-03-06T11:09:42;8.02;;;4.97;;
21979;SDS011;11154;48.558;9.234;2024-03-06T11:11:47;6.68;;;5.45;;
21979;SDS011;11154;48.558;9.234;2024-03-06T11:13:54;9.57;;;6.53;;
21979;SDS011;11154;48.558;9.234;2024-03-06T11:15:57;6.43;;;4.85;;
21979;SDS011;11154;48.558;9.234;2024-03-06T11:18:11;8.35;;;6.93;;
21979;SDS011;11154;48.558;9.234;2024-03-06T11:20:43;7.28;;;5.13;;
21979;SDS011;11154;48.558;9.234;2024-03-06T11:23:04;9.70;;;6.32;;
21979;SDS011;11154;48.558;9.234;2024-03-06T11:25:13;7.88;;;5.68;;
21979;SDS011;11154;48.558;9.234;2024-03-06T11:28:03;9.52;;;6.72;;
21979;SDS011;11154;48.558;9.234;2024-03-06T11:30:10;7.65;;;6.13;;
21979;SDS011;11154;48.558;9.234;2024-03-06T11:32:13;8.00;;;5.28;;
21979;SDS011;11154;48.558;9.234;2024-03-06T11:34:17;8.93;;;6.15;;
21979;SDS011;11154;48.558;9.234;2024-03-06T11:36:19;8.25;;;5.68;;
21979;SDS011;11154;48.558;9.234;2024-03-06T11:38:21;11.05;;;5.82;;
21979;SDS011;11154;48.558;9.234;2024-03-06T11:40:26;8.85;;;6.15;;
21979;SDS011;11154;48.558;9.234;2024-03-06T11:42:32;7.97;;;5.80;;
21979;SDS011;11154;48.558;9.234;2024-03-06T11:44:36;9.40;;;5.88;;
21979;SDS011;11154;48.558;9.234;2024-03-06T11:46:41;15.48;;;10.13;;
21979;SDS011;11154;48.558;9.234;2024-03-06T11:48:42;8.55;;;6.78;;
21979;SDS011;11154;48.558;9.234;2024-03-06T11:50:46;8.23;;;5.88;;
21979;SDS011;11154;48.558;9.234;2024-03-06T11:52:49;10.02;;;7.40;;
21979;SDS011;11154;48.558;9.234;2024-03-06T11:54:51;11.00;;;7.82;;
21979;SDS011;11154;48.558;9.234;2024-03-06T11:56:54;10.32;;;7.28;;
21979;SDS011;11154;48.558;9.234;2024-03-06T11:58:56;9.52;;;6.35;;
21979;SDS011;11154;48.558;9.234;2024-03-06T12:00:58;7.80;;;6.10;;
21979;SDS011;11154;48.558;9.234;2024-03-06T12:03:00;7.13;;;6.18;;
21979;SDS011;11154;48.558;9.234;2024-03-06T12:05:04;9.38;;;6.82;;
21979;SDS011;11154;48.558;9.234;2024-03-06T12:07:11;12.40;;;7.72;;
21979;SDS011;11154;48.558;9.234;2024-03-06T12:09:13;9.77;;;6.85;;
21979;SDS011;11154;48.558;9.234;2024-03-06T12:11:15;9.50;;;7.00;;
21979;SDS011;11154;48.558;9.234;2024-03-06T12:13:16;8.48;;;6.35;;
21979;SDS011;11154;48.558;9.234;2024-03-06T12:15:17;8.57;;;6.53;;
21979;SDS011;11154;48.558;9.234;2024-03-06T12:17:19;7.82;;;5.97;;
21979;SDS011;11154;48.558;9.234;2024-03-06T12:19:20;7.72;;;6.22;;